sensor_id;sensor_type;location;lat;lon;timestamp;pressure;altitude;pressure_sealevel;temperature;humidity
21877;BME280;11103;43.788;23.710;2023-01-16T00:01:59;146993.53;;;2.47;100.00
21877;BME280;11103;43.788;23.710;2023-01-16T00:04:25;147001.16;;;2.50;100.00
21877;BME280;11103;43.788;23.710;2023-01-16T00:06:51;146998.59;;;2.49;100.00
21877;BME280;11103;43.788;23.710;2023-01-16T00:09:17;146982.06;;;2.42;100.00
21877;BME280;11103;43.788;23.710;2023-01-16T00:11:43;146980.81;;;2.42;100.00
21877;BME280;11103;43.788;23.710;2023-01-16T00:14:09;146989.69;;;2.45;100.00
21877;BME280;11103;43.788;23.710;2023-01-16T00:16:34;146983.34;;;2.42;100.00
21877;BME280;11103;43.788;23.710;2023-01-16T00:19:00;146965.56;;;2.35;100.00
21877;BME280;11103;43.788;23.710;2023-01-16T00:21:25;146965.56;;;2.35;100.00
21877;BME280;11103;43.788;23.710;2023-01-16T00:23:55;146960.50;;;2.33;100.00
21877;BME280;11103;43.788;23.710;2023-01-16T00:26:22;146960.50;;;2.33;100.00
21877;BME280;11103;43.788;23.710;2023-01-16T00:28:48;146955.38;;;2.31;100.00
21877;BME280;11103;43.788;23.710;2023-01-16T00:31:13;146935.06;;;2.23;100.00
21877;BME280;11103;43.788;23.710;2023-01-16T00:33:39;146932.56;;;2.22;100.00
21877;BME280;11103;43.788;23.710;2023-01-16T00:36:04;146914.75;;;2.15;100.00
21877;BME280;11103;43.788;23.710;2023-01-16T00:38:30;146912.25;;;2.14;100.00
21877;BME280;11103;43.788;23.710;2023-01-16T00:40:56;146870.31;;;1.98;100.00
21877;BME280;11103;43.788;23.710;2023-01-16T00:43:22;134557.22;;;1.97;100.00
21877;BME280;11103;43.788;23.710;2023-01-16T00:45:47;125623.38;;;1.88;100.00
21877;BME280;11103;43.788;23.710;2023-01-16T00:48:13;107741.03;;;1.86;100.00
21877;BME280;11103;43.788;23.710;2023-01-16T00:50:39;106894.75;;;1.83;100.00
21877;BME280;11103;43.788;23.710;2023-01-16T00:53:04;119781.56;;;1.91;100.00
21877;BME280;11103;43.788;23.710;2023-01-16T00:55:32;132158.31;;;1.96;100.00
21877;BME280;11103;43.788;23.710;2023-01-16T00:57:58;141473.56;;;1.98;100.00
21877;BME280;11103;43.788;23.710;2023-01-16T01:00:23;146877.94;;;2.01;100.00
21877;BME280;11103;43.788;23.710;2023-01-16T01:02:50;146876.69;;;2.00;100.00
21877;BME280;11103;43.788;23.710;2023-01-16T01:05:16;146870.31;;;1.98;100.00
21877;BME280;11103;43.788;23.710;2023-01-16T01:07:41;143937.19;;;1.87;100.00
21877;BME280;11103;43.788;23.710;2023-01-16T01:10:08;136778.84;;;1.90;100.00
21877;BME280;11103;43.788;23.710;2023-01-16T01:12:34;128687.13;;;1.86;100.00
21877;BME280;11103;43.788;23.710;2023-01-16T01:14:59;118109.22;;;1.81;100.00
21877;BME280;11103;43.788;23.710;2023-01-16T01:17:24;116189.16;;;1.85;100.00
21877;BME280;11103;43.788;23.710;2023-01-16T01:19:50;128000.56;;;1.93;100.00
21877;BME280;11103;43.788;23.710;2023-01-16T01:22:15;140516.97;;;1.98;100.00
21877;BME280;11103;43.788;23.710;2023-01-16T01:24:42;146874.13;;;1.99;100.00
21877;BME280;11103;43.788;23.710;2023-01-16T01:27:07;146877.94;;;2.01;100.00
21877;BME280;11103;43.788;23.710;2023-01-16T01:29:33;146886.81;;;2.04;100.00
21877;BME280;11103;43.788;23.710;2023-01-16T01:31:58;146884.31;;;2.03;100.00
21877;BME280;11103;43.788;23.710;2023-01-16T01:34:24;146875.41;;;2.00;100.00
21877;BME280;11103;43.788;23.710;2023-01-16T01:36:49;146846.19;;;1.88;100.00
21877;BME280;11103;43.788;23.710;2023-01-16T01:39:15;132416.22;;;1.77;100.00
21877;BME280;11103;43.788;23.710;2023-01-16T01:41:40;118874.50;;;1.66;100.00
21877;BME280;11103;43.788;23.710;2023-01-16T01:44:44;117554.72;;;1.73;100.00
21877;BME280;11103;43.788;23.710;2023-01-16T01:47:10;120172.69;;;1.69;100.00
21877;BME280;11103;43.788;23.710;2023-01-16T01:49:36;122449.00;;;1.76;100.00
21877;BME280;11103;43.788;23.710;2023-01-16T01:52:03;127014.78;;;1.71;100.00
21877;BME280;11103;43.788;23.710;2023-01-16T01:54:34;131136.06;;;1.70;100.00
21877;BME280;11103;43.788;23.710;2023-01-16T01:57:16;117424.13;;;1.56;100.00
21877;BME280;11103;43.788;23.710;2023-01-16T02:03:01;103164.97;;;1.68;100.00
21877;BME280;11103;43.788;23.710;2023-01-16T02:05:35;95147.50;;;1.67;100.00
21877;BME280;11103;43.788;23.710;2023-01-16T02:08:03;98934.69;;;1.67;100.00
21877;BME280;11103;43.788;23.710;2023-01-16T02:10:34;106012.09;;;1.66;100.00
21877;BME280;11103;43.788;23.710;2023-01-16T02:13:03;116123.66;;;1.57;100.00
21877;BME280;11103;43.788;23.710;2023-01-16T02:15:29;121155.47;;;1.50;100.00
21877;BME280;11103;43.788;23.710;2023-01-16T02:17:54;120762.94;;;1.49;100.00
21877;BME280;11103;43.788;23.710;2023-01-16T02:20:54;115612.44;;;1.40;100.00
21877;BME280;11103;43.788;23.710;2023-01-16T02:23:39;102353.59;;;1.42;100.00
21877;BME280;11103;43.788;23.710;2023-01-16T02:45:49;73283.88;;;1.65;100.00
21877;BME280;11103;43.788;23.710;2023-01-16T02:54:00;61123.03;;;1.66;100.00
21877;BME280;11103;43.788;23.710;2023-01-16T02:56:37;52974.28;;;1.64;100.00
21877;BME280;11103;43.788;23.710;2023-01-16T02:59:08;46209.53;;;1.65;100.00
21877;BME280;11103;43.788;23.710;2023-01-16T03:01:35;43958.25;;;1.66;100.00
21877;BME280;11103;43.788;23.710;2023-01-16T03:06:55;34000.31;;;1.62;100.00
21877;BME280;11103;43.788;23.710;2023-01-16T03:12:49;28553.78;;;1.62;100.00
21877;BME280;11103;43.788;23.710;2023-01-16T03:30:57;24709.91;;;1.52;100.00
21877;BME280;11103;43.788;23.710;2023-01-16T03:33:50;25990.41;;;1.55;100.00
21877;BME280;11103;43.788;23.710;2023-01-16T03:36:40;24713.34;;;1.59;100.00
21877;BME280;11103;43.788;23.710;2023-01-16T03:39:08;25034.72;;;1.63;100.00
21877;BME280;11103;43.788;23.710;2023-01-16T03:41:37;25356.41;;;1.67;100.00
21877;BME280;11103;43.788;23.710;2023-01-16T03:44:10;25038.47;;;1.71;100.00
21877;BME280;11103;43.788;23.710;2023-01-16T03:46:42;24080.44;;;1.74;100.00
21877;BME280;11103;43.788;23.710;2023-01-16T03:49:12;23443.63;;;1.80;100.00
21877;BME280;11103;43.788;23.710;2023-01-16T03:51:46;23761.34;;;1.75;100.00
21877;BME280;11103;43.788;23.710;2023-01-16T03:59:46;18966.41;;;1.69;100.00
21877;BME280;11103;43.788;23.710;2023-01-16T04:05:15;15773.06;;;1.61;100.00
21877;BME280;11103;43.788;23.710;2023-01-16T04:10:32;12584.28;;;1.55;100.00
21877;BME280;11103;43.788;23.710;2023-01-16T04:13:14;11311.25;;;1.59;100.00
21877;BME280;11103;43.788;23.710;2023-01-16T04:15:47;10356.81;;;1.63;100.00
21877;BME280;11103;43.788;23.710;2023-01-16T04:18:14;11311.25;;;1.59;100.00
21877;BME280;11103;43.788;23.710;2023-01-16T04:20:42;11947.84;;;1.58;100.00
21877;BME280;11103;43.788;23.710;2023-01-16T04:23:08;12265.13;;;1.53;100.00
21877;BME280;11103;43.788;23.710;2023-01-16T04:25:34;10991.91;;;1.55;100.00
21877;BME280;11103;43.788;23.710;2023-01-16T04:27:59;11310.78;;;1.57;100.00
21877;BME280;11103;43.788;23.710;2023-01-16T04:30:25;11946.25;;;1.51;100.00
21877;BME280;11103;43.788;23.710;2023-01-16T04:32:50;12263.09;;;1.45;100.00
21877;BME280;11103;43.788;23.710;2023-01-16T04:35:15;10991.09;;;1.52;100.00
21877;BME280;11103;43.788;23.710;2023-01-16T04:37:41;11628.03;;;1.52;100.00
21877;BME280;11103;43.788;23.710;2023-01-16T04:40:07;12901.16;;;1.49;100.00
21877;BME280;11103;43.788;23.710;2023-01-16T04:42:34;12903.50;;;1.58;100.00
21877;BME280;11103;43.788;23.710;2023-01-16T04:44:59;15132.66;;;1.52;100.00
21877;BME280;11103;43.788;23.710;2023-01-16T04:47:25;14497.03;;;1.58;100.00
21877;BME280;11103;43.788;23.710;2023-01-16T04:49:50;14818.00;;;1.66;100.00
21877;BME280;11103;43.788;23.710;2023-01-16T04:52:15;14817.88;;;1.65;100.00
21877;BME280;11103;43.788;23.710;2023-01-16T04:54:41;13541.03;;;1.59;100.00
21877;BME280;11103;43.788;23.710;2023-01-16T04:57:06;10992.72;;;1.59;100.00
21877;BME280;11103;43.788;23.710;2023-01-16T04:59:32;9083.03;;;1.60;100.00
21877;BME280;11103;43.788;23.710;2023-01-16T05:01:57;7492.31;;;1.61;100.00
21877;BME280;11103;43.788;23.710;2023-01-16T05:04:23;6854.72;;;1.52;100.00
21877;BME280;11103;43.788;23.710;2023-01-16T05:06:48;4630.34;;;1.58;100.00
21877;BME280;11103;43.788;23.710;2023-01-16T05:09:14;4312.75;;;1.59;100.00
21877;BME280;11103;43.788;23.710;2023-01-16T05:11:40;3677.75;;;1.64;100.00
21877;BME280;11103;43.788;23.710;2023-01-16T05:14:06;2408.53;;;1.81;100.00
21877;BME280;11103;43.788;23.710;2023-01-16T05:16:37;3680.03;;;1.85;100.00
21877;BME280;11103;43.788;23.710;2023-01-16T05:19:04;6540.22;;;1.74;100.00
21877;BME280;11103;43.788;23.710;2023-01-16T05:21:29;6858.22;;;1.73;100.00
21877;BME280;11103;43.788;23.710;2023-01-16T05:23:55;6540.28;;;1.74;100.00
21877;BME280;11103;43.788;23.710;2023-01-16T05:26:20;7494.63;;;1.74;100.00
21877;BME280;11103;43.788;23.710;2023-01-16T05:28:45;7495.25;;;1.78;100.00
21877;BME280;11103;43.788;23.710;2023-01-16T05:31:11;10358.47;;;1.70;100.00
21877;BME280;11103;43.788;23.710;2023-01-16T05:33:36;9403.25;;;1.70;100.00
21877;BME280;11103;43.788;23.710;2023-01-16T05:36:02;8447.28;;;1.64;100.00
21877;BME280;11103;43.788;23.710;2023-01-16T05:38:27;6541.94;;;1.85;100.00
21877;BME280;11103;43.788;23.710;2023-01-16T05:40:53;6224.88;;;1.92;100.00
21877;BME280;11103;43.788;23.710;2023-01-16T05:43:18;7180.59;;;1.99;100.00
21877;BME280;11103;43.788;23.710;2023-01-16T05:45:44;8135.50;;;1.99;100.00
21877;BME280;11103;43.788;23.710;2023-01-16T05:48:09;8456.91;;;2.15;100.00
21877;BME280;11103;43.788;23.710;2023-01-16T05:50:35;10051.34;;;2.23;100.00
21877;BME280;11103;43.788;23.710;2023-01-16T05:53:00;12602.69;;;2.27;100.00
21877;BME280;11103;43.788;23.710;2023-01-16T05:55:26;16113.16;;;2.28;100.00
21877;BME280;11103;43.788;23.710;2023-01-16T05:57:51;18350.97;;;2.34;100.00
21877;BME280;11103;43.788;23.710;2023-01-16T06:00:17;22186.44;;;2.32;100.00
21877;BME280;11103;43.788;23.710;2023-01-16T06:02:43;25067.34;;;2.33;100.00
21877;BME280;11103;43.788;23.710;2023-01-16T06:05:08;27306.72;;;2.28;100.00
21877;BME280;11103;43.788;23.710;2023-01-16T06:07:34;24748.09;;;2.35;100.00
21877;BME280;11103;43.788;23.710;2023-01-16T06:10:00;26350.19;;;2.37;100.00
21877;BME280;11103;43.788;23.710;2023-01-16T06:12:25;30516.28;;;2.36;100.00
21877;BME280;11103;43.788;23.710;2023-01-16T06:14:50;33634.72;;;2.28;100.00
21877;BME280;11103;43.788;23.710;2023-01-16T06:17:16;33923.88;;;2.17;100.00
21877;BME280;11103;43.788;23.710;2023-01-16T06:19:44;29221.38;;;2.13;100.00
21877;BME280;11103;43.788;23.710;2023-01-16T06:22:10;24741.88;;;2.22;100.00
21877;BME280;11103;43.788;23.710;2023-01-16T06:24:36;22184.16;;;2.26;100.00
21877;BME280;11103;43.788;23.710;2023-01-16T06:27:01;23470.41;;;2.42;100.00
21877;BME280;11103;43.788;23.710;2023-01-16T06:29:27;26675.69;;;2.48;100.00
21877;BME280;11103;43.788;23.710;2023-01-16T06:31:52;29242.53;;;2.53;100.00
21877;BME280;11103;43.788;23.710;2023-01-16T06:34:18;35577.19;;;2.58;100.00
21877;BME280;11103;43.788;23.710;2023-01-16T06:36:43;39744.91;;;2.52;100.00
21877;BME280;11103;43.788;23.710;2023-01-16T06:39:11;45835.00;;;2.49;100.00
21877;BME280;11103;43.788;23.710;2023-01-16T06:41:37;42179.31;;;2.46;100.00
21877;BME280;11103;43.788;23.710;2023-01-16T06:44:02;41539.56;;;2.45;100.00
21877;BME280;11103;43.788;23.710;2023-01-16T06:46:27;43570.75;;;2.30;100.00
21877;BME280;11103;43.788;23.710;2023-01-16T06:48:53;38336.31;;;2.20;100.00
21877;BME280;11103;43.788;23.710;2023-01-16T06:51:18;31581.84;;;2.20;100.00
21877;BME280;11103;43.788;23.710;2023-01-16T06:53:44;26346.28;;;2.29;100.00
21877;BME280;11103;43.788;23.710;2023-01-16T06:56:09;27630.66;;;2.35;100.00
21877;BME280;11103;43.788;23.710;2023-01-16T06:58:34;27316.28;;;2.48;100.00
21877;BME280;11103;43.788;23.710;2023-01-16T07:01:00;29382.22;;;2.57;100.00
21877;BME280;11103;43.788;23.710;2023-01-16T07:03:25;33318.59;;;2.66;100.00
21877;BME280;11103;43.788;23.710;2023-01-16T07:05:51;39079.72;;;2.74;100.00
21877;BME280;11103;43.788;23.710;2023-01-16T07:08:16;42918.19;;;2.82;100.00
21877;BME280;11103;43.788;23.710;2023-01-16T07:10:42;49235.59;;;2.84;100.00
21877;BME280;11103;43.788;23.710;2023-01-16T07:13:07;56717.63;;;2.84;100.00
21877;BME280;11103;43.788;23.710;2023-01-16T07:15:34;61196.94;;;2.83;100.00
21877;BME280;11103;43.788;23.710;2023-01-16T07:18:19;62795.84;;;2.87;100.00
21877;BME280;11103;43.788;23.710;2023-01-16T07:21:05;66252.03;;;2.88;100.00
21877;BME280;11103;43.788;23.710;2023-01-16T07:23:56;74119.88;;;2.82;100.00
21877;BME280;11103;43.788;23.710;2023-01-16T07:26:24;76407.41;;;2.75;100.00
21877;BME280;11103;43.788;23.710;2023-01-16T07:28:50;71510.97;;;2.58;100.00
21877;BME280;11103;43.788;23.710;2023-01-16T07:31:18;63849.63;;;2.67;100.00
21877;BME280;11103;43.788;23.710;2023-01-16T07:33:43;62701.66;;;2.75;100.00
21877;BME280;11103;43.788;23.710;2023-01-16T07:36:09;65870.06;;;2.82;100.00
21877;BME280;11103;43.788;23.710;2023-01-16T07:38:34;73843.06;;;2.84;100.00
21877;BME280;11103;43.788;23.710;2023-01-16T07:40:59;79606.09;;;2.82;100.00
21877;BME280;11103;43.788;23.710;2023-01-16T07:43:25;75434.91;;;2.91;100.00
21877;BME280;11103;43.788;23.710;2023-01-16T07:45:50;79347.91;;;2.94;100.00
21877;BME280;11103;43.788;23.710;2023-01-16T07:48:20;92185.06;;;2.85;100.00
21877;BME280;11103;43.788;23.710;2023-01-16T07:50:53;89268.75;;;2.84;100.00
21877;BME280;11103;43.788;23.710;2023-01-16T07:53:20;85729.09;;;2.82;100.00
21877;BME280;11103;43.788;23.710;2023-01-16T07:55:55;91632.66;;;2.78;100.00
21877;BME280;11103;43.788;23.710;2023-01-16T07:58:21;83561.34;;;2.84;100.00
21877;BME280;11103;43.788;23.710;2023-01-16T08:00:47;82610.81;;;2.80;100.00
21877;BME280;11103;43.788;23.710;2023-01-16T08:03:14;79992.81;;;2.88;100.00
21877;BME280;11103;43.788;23.710;2023-01-16T08:05:41;81690.19;;;2.95;100.00
21877;BME280;11103;43.788;23.710;2023-01-16T08:08:08;82870.09;;;3.08;100.00
21877;BME280;11103;43.788;23.710;2023-01-16T08:10:34;90373.31;;;3.18;100.00
21877;BME280;11103;43.788;23.710;2023-01-16T08:12:59;99341.66;;;3.25;100.00
21877;BME280;11103;43.788;23.710;2023-01-16T08:15:25;120679.28;;;3.07;100.00
21877;BME280;11103;43.788;23.710;2023-01-16T08:17:50;116094.78;;;2.95;100.00
21877;BME280;11103;43.788;23.710;2023-01-16T08:20:15;107913.53;;;2.94;100.00
21877;BME280;11103;43.788;23.710;2023-01-16T08:22:45;96124.81;;;3.02;100.00
21877;BME280;11103;43.788;23.710;2023-01-16T08:25:13;101420.63;;;3.29;100.00
21877;BME280;11103;43.788;23.710;2023-01-16T08:27:39;103998.56;;;3.43;100.00
21877;BME280;11103;43.788;23.710;2023-01-16T08:30:05;113841.75;;;3.44;100.00
21877;BME280;11103;43.788;23.710;2023-01-16T08:32:31;120301.56;;;3.52;100.00
21877;BME280;11103;43.788;23.710;2023-01-16T08:34:56;119072.63;;;3.47;100.00
21877;BME280;11103;43.788;23.710;2023-01-16T08:37:22;130879.28;;;3.43;100.00
21877;BME280;11103;43.788;23.710;2023-01-16T08:39:47;134544.47;;;3.32;100.00
21877;BME280;11103;43.788;23.710;2023-01-16T08:42:12;120120.56;;;3.46;100.00
21877;BME280;11103;43.788;23.710;2023-01-16T08:44:57;128472.47;;;3.66;100.00
21877;BME280;11103;43.788;23.710;2023-01-16T08:47:40;144438.00;;;3.64;100.00
21877;BME280;11103;43.788;23.710;2023-01-16T08:50:45;141906.78;;;3.78;100.00
21877;BME280;11103;43.788;23.710;2023-01-16T08:53:30;147262.94;;;3.53;100.00
21877;BME280;11103;43.788;23.710;2023-01-16T08:55:55;146025.75;;;3.37;100.00
21877;BME280;11103;43.788;23.710;2023-01-16T08:58:21;136043.97;;;3.47;100.00
21877;BME280;11103;43.788;23.710;2023-01-16T09:00:47;137981.84;;;3.47;100.00
21877;BME280;11103;43.788;23.710;2023-01-16T09:03:12;130726.97;;;3.46;100.00
21877;BME280;11103;43.788;23.710;2023-01-16T09:05:38;129673.25;;;3.37;100.00
21877;BME280;11103;43.788;23.710;2023-01-16T09:08:04;125805.16;;;3.26;100.00
21877;BME280;11103;43.788;23.710;2023-01-16T09:10:29;116141.63;;;3.35;100.00
21877;BME280;11103;43.788;23.710;2023-01-16T09:12:56;112800.75;;;3.35;100.00
21877;BME280;11103;43.788;23.710;2023-01-16T09:15:40;126100.13;;;3.56;100.00
21877;BME280;11103;43.788;23.710;2023-01-16T09:18:05;123405.34;;;3.73;100.00
21877;BME280;11103;43.788;23.710;2023-01-16T09:20:31;141920.22;;;3.65;100.00
21877;BME280;11103;43.788;23.710;2023-01-16T09:22:57;143460.28;;;3.48;100.00
21877;BME280;11103;43.788;23.710;2023-01-16T09:25:23;140092.13;;;3.52;100.00
21877;BME280;11103;43.788;23.710;2023-01-16T09:27:48;135611.00;;;3.56;100.00
21877;BME280;11103;43.788;23.710;2023-01-16T09:30:14;137002.94;;;3.71;100.00
21877;BME280;11103;43.788;23.710;2023-01-16T09:32:40;134035.34;;;3.93;100.00
21877;BME280;11103;43.788;23.710;2023-01-16T09:35:05;147383.81;;;4.01;100.00
21877;BME280;11103;43.788;23.710;2023-01-16T09:37:31;147406.69;;;4.10;100.00
21877;BME280;11103;43.788;23.710;2023-01-16T09:39:56;147438.53;;;4.23;100.00
21877;BME280;11103;43.788;23.710;2023-01-16T09:45:24;147513.59;;;4.53;100.00
21877;BME280;11103;43.788;23.710;2023-01-16T09:47:54;147555.63;;;4.69;100.00
21877;BME280;11103;43.788;23.710;2023-01-16T09:50:36;147576.00;;;4.77;100.00
21877;BME280;11103;43.788;23.710;2023-01-16T09:53:05;147547.97;;;4.66;100.00
21877;BME280;11103;43.788;23.710;2023-01-16T09:56:13;147489.41;;;4.43;100.00
21877;BME280;11103;43.788;23.710;2023-01-16T10:01:41;147397.81;;;4.07;100.00
21877;BME280;11103;43.788;23.710;2023-01-16T10:04:28;147405.44;;;4.10;100.00
21877;BME280;11103;43.788;23.710;2023-01-16T10:07:26;147441.03;;;4.24;100.00
21877;BME280;11103;43.788;23.710;2023-01-16T10:12:17;147448.69;;;4.27;100.00
21877;BME280;11103;43.788;23.710;2023-01-16T10:20:30;147551.78;;;4.68;100.00
21877;BME280;11103;43.788;23.710;2023-01-16T10:25:43;147535.25;;;4.61;100.00
21877;BME280;11103;43.788;23.710;2023-01-16T10:31:02;147499.59;;;4.47;100.00
21877;BME280;11103;43.788;23.710;2023-01-16T10:33:44;147480.53;;;4.40;100.00
21877;BME280;11103;43.788;23.710;2023-01-16T10:36:14;147465.25;;;4.34;100.00
21877;BME280;11103;43.788;23.710;2023-01-16T10:38:49;147463.97;;;4.33;100.00
21877;BME280;11103;43.788;23.710;2023-01-16T10:41:26;147441.03;;;4.24;100.00
21877;BME280;11103;43.788;23.710;2023-01-16T10:47:01;147458.88;;;4.31;100.00
21877;BME280;11103;43.788;23.710;2023-01-16T10:49:46;147448.69;;;4.27;100.00
21877;BME280;11103;43.788;23.710;2023-01-16T10:52:11;147481.81;;;4.40;100.00
21877;BME280;11103;43.788;23.710;2023-01-16T10:54:37;147517.41;;;4.54;100.00
21877;BME280;11103;43.788;23.710;2023-01-16T10:57:10;147527.59;;;4.58;100.00
21877;BME280;11103;43.788;23.710;2023-01-16T10:59:39;147499.59;;;4.47;100.00
21877;BME280;11103;43.788;23.710;2023-01-16T11:02:30;147499.59;;;4.47;100.00
21877;BME280;11103;43.788;23.710;2023-01-16T11:04:57;147565.78;;;4.73;100.00
21877;BME280;11103;43.788;23.710;2023-01-16T11:07:26;147614.16;;;4.93;100.00
21877;BME280;11103;43.788;23.710;2023-01-16T11:09:52;147600.16;;;4.87;100.00
21877;BME280;11103;43.788;23.710;2023-01-16T11:12:27;147558.13;;;4.70;100.00
21877;BME280;11103;43.788;23.710;2023-01-16T11:15:22;147502.16;;;4.48;100.00
21877;BME280;11103;43.788;23.710;2023-01-16T11:18:23;147489.41;;;4.43;100.00
21877;BME280;11103;43.788;23.710;2023-01-16T11:20:56;147504.69;;;4.49;100.00
21877;BME280;11103;43.788;23.710;2023-01-16T11:23:33;147491.97;;;4.44;100.00
21877;BME280;11103;43.788;23.710;2023-01-16T11:26:00;147480.53;;;4.40;100.00
21877;BME280;11103;43.788;23.710;2023-01-16T11:28:28;147505.97;;;4.50;100.00
21877;BME280;11103;43.788;23.710;2023-01-16T11:30:57;147495.75;;;4.46;100.00
21877;BME280;11103;43.788;23.710;2023-01-16T11:33:28;147545.41;;;4.65;100.00
21877;BME280;11103;43.788;23.710;2023-01-16T11:35:58;147581.06;;;4.79;100.00
21877;BME280;11103;43.788;23.710;2023-01-16T11:38:27;147604.00;;;4.89;100.00
21877;BME280;11103;43.788;23.710;2023-01-16T11:40:58;147583.63;;;4.80;100.00
21877;BME280;11103;43.788;23.710;2023-01-16T11:43:27;147563.25;;;4.72;100.00
21877;BME280;11103;43.788;23.710;2023-01-16T11:46:30;147525.03;;;4.57;100.00
21877;BME280;11103;43.788;23.710;2023-01-16T11:49:02;147479.25;;;4.39;100.00
21877;BME280;11103;43.788;23.710;2023-01-16T11:51:30;147491.97;;;4.44;100.00
21877;BME280;11103;43.788;23.710;2023-01-16T11:53:57;143906.78;;;4.50;100.00
21877;BME280;11103;43.788;23.710;2023-01-16T11:56:40;147479.25;;;4.39;100.00
21877;BME280;11103;43.788;23.710;2023-01-16T11:59:18;147481.81;;;4.40;100.00
21877;BME280;11103;43.788;23.710;2023-01-16T12:05:08;144889.31;;;4.48;100.00
21877;BME280;11103;43.788;23.710;2023-01-16T12:13:12;147685.50;;;5.21;100.00
21877;BME280;11103;43.788;23.710;2023-01-16T12:18:43;147688.00;;;5.22;100.00
21877;BME280;11103;43.788;23.710;2023-01-16T12:30:53;147660.03;;;5.11;100.00
21877;BME280;11103;43.788;23.710;2023-01-16T12:39:07;147629.47;;;4.99;100.00
21877;BME280;11103;43.788;23.710;2023-01-16T12:41:52;147621.81;;;4.96;100.00
21877;BME280;11103;43.788;23.710;2023-01-16T12:53:16;147676.56;;;5.17;100.00
21877;BME280;11103;43.788;23.710;2023-01-16T12:58:45;147680.41;;;5.19;100.00
21877;BME280;11103;43.788;23.710;2023-01-16T13:01:16;147667.63;;;5.14;100.00
21877;BME280;11103;43.788;23.710;2023-01-16T13:03:56;147685.50;;;5.21;100.00
21877;BME280;11103;43.788;23.710;2023-01-16T13:09:11;147662.56;;;5.12;100.00
21877;BME280;11103;43.788;23.710;2023-01-16T13:11:55;147674.06;;;5.16;100.00
21877;BME280;11103;43.788;23.710;2023-01-16T13:14:43;147685.50;;;5.21;100.00
21877;BME280;11103;43.788;23.710;2023-01-16T13:17:14;147666.41;;;5.13;100.00
21877;BME280;11103;43.788;23.710;2023-01-16T13:19:40;147629.47;;;4.99;100.00
21877;BME280;11103;43.788;23.710;2023-01-16T13:24:41;147602.72;;;4.88;100.00
21877;BME280;11103;43.788;23.710;2023-01-16T13:27:16;147615.44;;;4.93;100.00
21877;BME280;11103;43.788;23.710;2023-01-16T13:29:48;147644.75;;;5.05;100.00
21877;BME280;11103;43.788;23.710;2023-01-16T13:35:06;147665.13;;;5.13;100.00
21877;BME280;11103;43.788;23.710;2023-01-16T13:38:05;147676.56;;;5.17;100.00
21877;BME280;11103;43.788;23.710;2023-01-16T13:40:41;147685.50;;;5.21;100.00
21877;BME280;11103;43.788;23.710;2023-01-16T13:43:18;147685.50;;;5.21;100.00
21877;BME280;11103;43.788;23.710;2023-01-16T13:46:04;147660.03;;;5.11;100.00
21877;BME280;11103;43.788;23.710;2023-01-16T13:48:34;147663.84;;;5.12;100.00
21877;BME280;11103;43.788;23.710;2023-01-16T13:51:06;147646.03;;;5.05;100.00
21877;BME280;11103;43.788;23.710;2023-01-16T13:53:35;147644.75;;;5.05;100.00
21877;BME280;11103;43.788;23.710;2023-01-16T13:58:32;147634.53;;;5.01;100.00
21877;BME280;11103;43.788;23.710;2023-01-16T14:01:03;147643.47;;;5.04;100.00
21877;BME280;11103;43.788;23.710;2023-01-16T14:03:31;147621.81;;;4.96;100.00
21877;BME280;11103;43.788;23.710;2023-01-16T14:12:01;147503.59;;;4.69;100.00
21877;BME280;11103;43.788;23.710;2023-01-16T14:17:29;127832.63;;;4.53;100.00
21877;BME280;11103;43.788;23.710;2023-01-16T14:21:00;126864.22;;;4.53;100.00
21877;BME280;11103;43.788;23.710;2023-01-16T14:23:35;123310.94;;;4.54;100.00
21877;BME280;11103;43.788;23.710;2023-01-16T14:31:54;120781.03;;;4.50;100.00
21877;BME280;11103;43.788;23.710;2023-01-16T14:34:28;119790.44;;;4.49;100.00
21877;BME280;11103;43.788;23.710;2023-01-16T14:37:01;117419.22;;;4.47;100.00
21877;BME280;11103;43.788;23.710;2023-01-16T14:39:39;113334.34;;;4.41;100.00
21877;BME280;11103;43.788;23.710;2023-01-16T14:42:20;111718.91;;;4.44;100.00
21877;BME280;11103;43.788;23.710;2023-01-16T14:56:50;104377.44;;;4.17;100.00
21877;BME280;11103;43.788;23.710;2023-01-16T14:59:33;102997.84;;;4.42;100.00
21877;BME280;11103;43.788;23.710;2023-01-16T15:02:09;100684.22;;;4.49;100.00
21877;BME280;11103;43.788;23.710;2023-01-16T15:07:28;108021.50;;;4.57;100.00
21877;BME280;11103;43.788;23.710;2023-01-16T15:10:00;109330.13;;;4.56;100.00
21877;BME280;11103;43.788;23.710;2023-01-16T15:12:36;107470.19;;;4.56;100.00
21877;BME280;11103;43.788;23.710;2023-01-16T15:15:02;103585.03;;;4.63;100.00
21877;BME280;11103;43.788;23.710;2023-01-16T15:17:37;107119.47;;;4.68;100.00
21877;BME280;11103;43.788;23.710;2023-01-16T15:20:28;114466.22;;;4.71;100.00
21877;BME280;11103;43.788;23.710;2023-01-16T15:23:31;119179.78;;;4.72;100.00
21877;BME280;11103;43.788;23.710;2023-01-16T15:30:53;124318.69;;;4.75;100.00
21877;BME280;11103;43.788;23.710;2023-01-16T15:33:29;123778.91;;;4.74;100.00
21877;BME280;11103;43.788;23.710;2023-01-16T15:36:23;122617.91;;;4.70;100.00
21877;BME280;11103;43.788;23.710;2023-01-16T15:38:55;121715.94;;;4.73;100.00
21877;BME280;11103;43.788;23.710;2023-01-16T15:41:32;124747.63;;;4.72;100.00
21877;BME280;11103;43.788;23.710;2023-01-16T15:44:18;124562.13;;;4.74;100.00
21877;BME280;11103;43.788;23.710;2023-01-16T15:52:58;125850.47;;;4.75;100.00
21877;BME280;11103;43.788;23.710;2023-01-16T15:55:27;128637.22;;;4.74;100.00
21877;BME280;11103;43.788;23.710;2023-01-16T15:57:55;129928.16;;;4.73;100.00